Time;durP1;ratioP1;P1;durP2;ratioP2;P2;SDS_P1;SDS_P2;PMS_P1;PMS_P2;Temp;Humidity;BMP_temperature;BMP_pressure;BME280_temperature;BME280_humidity;BME280_pressure;Samples;Min_cycle;Max_cycle;Signal;HPM_P1;HPM_P2
2023/03/20 00:00:59;;;;;;;5.50;4.30;;;13.60;99.90;;;;;;5053571;28;20454;-50
2023/03/20 00:03:26;;;;;;;8.00;4.57;;;13.60;99.90;;;;;;5053862;28;20410;-52
2023/03/20 00:05:53;;;;;;;5.40;4.50;;;14.00;99.90;;;;;;5053779;28;20414;-52
2023/03/20 00:08:19;;;;;;;7.60;6.00;;;13.00;99.90;;;;;;5053426;28;20431;-52
2023/03/20 00:10:47;;;;;;;6.80;4.57;;;14.00;99.90;;;;;;5053559;28;20434;-51
2023/03/20 00:13:19;;;;;;;7.23;4.00;;;13.80;99.90;;;;;;5053666;28;20813;-52
2023/03/20 00:15:45;;;;;;;8.67;4.57;;;13.70;99.90;;;;;;5052537;28;20437;-52
2023/03/20 00:18:17;;;;;;;4.10;3.70;;;13.60;99.90;;;;;;5053294;28;20834;-52
2023/03/20 00:20:44;;;;;;;4.47;4.07;;;13.80;99.90;;;;;;5053591;28;20410;-53
2023/03/20 00:23:11;;;;;;;8.77;4.73;;;13.40;99.90;;;;;;5053590;28;20434;-53
2023/03/20 00:25:39;;;;;;;5.80;5.20;;;13.70;99.90;;;;;;5053422;28;20435;-52
2023/03/20 00:28:29;;;;;;;7.47;5.17;;;13.50;99.90;;;;;;5053122;28;20474;-51
2023/03/20 00:30:56;;;;;;;9.03;5.10;;;13.30;99.90;;;;;;5053095;28;20476;-51
2023/03/20 00:33:25;;;;;;;6.67;5.10;;;13.20;99.90;;;;;;5053198;28;20481;-51
2023/03/20 00:35:52;;;;;;;6.00;4.83;;;12.70;99.90;;;;;;5053260;28;20437;-51
2023/03/20 00:38:19;;;;;;;6.17;5.50;;;13.10;99.90;;;;;;5052652;28;20449;-51
2023/03/20 00:40:45;;;;;;;6.13;4.23;;;12.60;99.90;;;;;;5035149;28;20503;-51
2023/03/20 00:43:14;;;;;;;6.63;5.00;;;13.10;99.90;;;;;;5052962;28;20955;-52
2023/03/20 00:45:42;;;;;;;5.87;4.50;;;13.20;99.90;;;;;;5052861;28;20437;-52
2023/03/20 00:48:14;;;;;;;9.10;5.20;;;12.90;99.90;;;;;;5052660;28;20491;-53
2023/03/20 00:50:42;;;;;;;10.70;4.90;;;13.30;99.90;;;;;;5053470;28;20437;-51
2023/03/20 00:53:10;;;;;;;6.90;4.90;;;12.70;99.90;;;;;;5054011;28;20485;-52
2023/03/20 00:55:38;;;;;;;5.73;5.00;;;12.40;99.90;;;;;;5054862;28;20473;-51
2023/03/20 00:58:06;;;;;;;5.27;4.67;;;12.80;99.90;;;;;;5054333;28;20443;-52
2023/03/20 01:00:38;;;;;;;5.67;4.80;;;12.60;99.90;;;;;;5055566;28;20778;-52
2023/03/20 01:03:14;;;;;;;6.90;5.30;;;12.50;99.90;;;;;;5036276;28;20493;-52
2023/03/20 01:05:43;;;;;;;5.80;4.80;;;12.90;99.90;;;;;;5035583;28;20459;-53
2023/03/20 01:08:13;;;;;;;5.63;4.77;;;12.50;99.90;;;;;;5034731;28;20943;-52
2023/03/20 01:10:40;;;;;;;9.70;5.50;;;12.60;99.90;;;;;;5034664;28;20827;-52
2023/03/20 01:13:19;;;;;;;6.63;5.63;;;12.50;99.90;;;;;;5052357;28;20461;-52
2023/03/20 01:15:47;;;;;;;8.37;5.90;;;12.40;99.90;;;;;;5034938;28;20450;-52
2023/03/20 01:18:14;;;;;;;7.63;5.50;;;12.00;99.90;;;;;;5051927;28;20529;-51
2023/03/20 01:20:42;;;;;;;8.30;5.53;;;12.60;99.90;;;;;;5034454;28;20452;-52
2023/03/20 01:23:10;;;;;;;6.13;4.50;;;12.50;99.90;;;;;;5052130;28;20822;-52
2023/03/20 01:25:37;;;;;;;7.00;5.80;;;12.20;99.90;;;;;;5052422;28;20445;-52
2023/03/20 01:28:13;;;;;;;8.10;6.40;;;12.30;99.90;;;;;;5051677;28;20434;-51
2023/03/20 01:30:40;;;;;;;10.97;7.50;;;12.30;99.90;;;;;;5034211;28;21052;-52
2023/03/20 01:33:14;;;;;;;9.00;6.00;;;12.30;99.90;;;;;;5034247;28;20557;-51
2023/03/20 01:35:41;;;;;;;11.13;6.80;;;12.20;99.90;;;;;;5034265;28;20450;-51
2023/03/20 01:38:13;;;;;;;8.80;6.63;;;11.80;99.90;;;;;;5033812;28;20449;-51
2023/03/20 01:40:48;;;;;;;7.37;5.83;;;12.00;99.90;;;;;;5034183;28;20483;-52
2023/03/20 01:43:18;;;;;;;10.10;5.67;;;12.20;99.90;;;;;;5034104;28;20447;-53
2023/03/20 01:45:55;;;;;;;9.13;5.77;;;11.60;99.90;;;;;;5034184;28;20475;-51
2023/03/20 01:48:26;;;;;;;7.13;5.60;;;12.20;99.90;;;;;;5033650;28;20557;-53
2023/03/20 01:50:54;;;;;;;7.53;6.10;;;12.10;99.90;;;;;;5034118;28;20455;-52
2023/03/20 01:53:28;;;;;;;10.90;6.13;;;12.00;99.90;;;;;;5033980;28;21037;-52
2023/03/20 01:56:00;;;;;;;7.80;6.10;;;11.70;99.90;;;;;;5034002;28;20541;-52
2023/03/20 01:58:40;;;;;;;8.23;6.50;;;11.80;99.90;;;;;;5033746;28;21031;-52
2023/03/20 02:01:10;;;;;;;12.53;6.10;;;12.10;99.90;;;;;;5033898;28;20483;-51
2023/03/20 02:03:38;;;;;;;9.80;6.00;;;12.30;99.90;;;;;;5034010;28;20448;-51
2023/03/20 02:06:18;;;;;;;8.33;5.83;;;12.20;99.90;;;;;;5033943;28;20461;-51
2023/03/20 02:09:04;;;;;;;16.30;7.13;;;12.30;99.90;;;;;;5051545;28;20505;-51
2023/03/20 02:11:37;;;;;;;8.50;6.60;;;12.20;99.90;;;;;;5033972;28;20483;-54
2023/03/20 02:14:06;;;;;;;12.57;7.17;;;12.00;99.90;;;;;;5033862;28;20556;-52
2023/03/20 02:16:41;;;;;;;6.73;5.73;;;12.40;99.90;;;;;;5033960;28;20796;-52
2023/03/20 02:19:21;;;;;;;10.67;6.60;;;12.30;99.90;;;;;;5033640;28;20453;-53
2023/03/20 02:22:18;;;;;;;7.87;7.07;;;12.20;99.90;;;;;;5033928;28;20987;-52
2023/03/20 02:25:14;;;;;;;12.43;7.00;;;12.00;99.90;;;;;;5052077;28;20483;-53
2023/03/20 02:27:56;;;;;;;6.83;6.13;;;12.00;99.90;;;;;;5033897;28;20966;-53
2023/03/20 02:30:48;;;;;;;7.97;6.07;;;12.10;99.90;;;;;;5033362;28;20502;-52
2023/03/20 02:33:46;;;;;;;10.20;6.80;;;12.10;99.90;;;;;;5051609;28;20433;-50
2023/03/20 02:36:58;;;;;;;7.70;6.73;;;12.10;99.90;;;;;;5033855;28;20444;-51
2023/03/20 02:39:46;;;;;;;12.63;7.83;;;12.10;99.90;;;;;;4961357;28;20470;-52
2023/03/20 02:42:22;;;;;;;9.20;6.90;;;12.30;99.90;;;;;;5049573;28;21047;-53
2023/03/20 02:44:59;;;;;;;6.70;5.93;;;11.70;99.90;;;;;;5037355;28;20826;-52
2023/03/20 02:47:31;;;;;;;9.93;7.10;;;12.10;99.90;;;;;;5037568;28;20460;-52
2023/03/20 02:50:09;;;;;;;9.10;7.40;;;12.00;99.90;;;;;;5037042;28;20464;-53
2023/03/20 02:52:43;;;;;;;8.13;6.80;;;12.60;99.90;;;;;;5055031;28;20606;-51
2023/03/20 02:55:17;;;;;;;7.43;5.90;;;12.00;99.90;;;;;;5037163;28;20533;-52
2023/03/20 02:57:57;;;;;;;9.90;6.00;;;12.10;99.90;;;;;;5037063;28;20454;-52
2023/03/20 03:00:29;;;;;;;7.30;6.20;;;12.20;99.90;;;;;;5036666;28;20483;-51
2023/03/20 03:03:04;;;;;;;7.90;5.97;;;12.00;99.90;;;;;;5037028;28;20917;-52
2023/03/20 03:05:37;;;;;;;8.03;6.33;;;12.20;99.90;;;;;;5037837;28;20459;-51
2023/03/20 03:08:06;;;;;;;7.30;6.20;;;11.90;99.90;;;;;;5054713;28;20440;-51
2023/03/20 03:10:40;;;;;;;7.80;6.80;;;12.00;99.90;;;;;;5036733;28;20451;-51
2023/03/20 03:13:12;;;;;;;7.77;6.97;;;12.10;99.90;;;;;;5037029;28;20480;-51
2023/03/20 03:15:43;;;;;;;7.50;6.70;;;11.90;99.90;;;;;;5036764;28;21107;-52
2023/03/20 03:18:13;;;;;;;11.00;7.50;;;11.90;99.90;;;;;;5036433;28;20902;-52
2023/03/20 03:20:40;;;;;;;9.70;6.70;;;12.70;99.90;;;;;;5054653;28;20452;-52
2023/03/20 03:23:07;;;;;;;7.90;7.10;;;12.50;99.90;;;;;;5036416;28;21017;-52
2023/03/20 03:25:39;;;;;;;8.13;7.17;;;12.40;99.90;;;;;;5054395;28;20524;-52
2023/03/20 03:28:15;;;;;;;9.60;8.40;;;12.70;99.90;;;;;;5054283;28;20910;-52
2023/03/20 03:30:44;;;;;;;9.33;7.53;;;12.50;99.90;;;;;;5036509;28;20876;-51
2023/03/20 03:33:15;;;;;;;9.53;8.27;;;12.70;99.90;;;;;;5036379;28;20461;-53
2023/03/20 03:35:43;;;;;;;9.53;8.47;;;12.30;99.90;;;;;;5036350;28;20474;-54
2023/03/20 03:38:24;;;;;;;9.60;8.30;;;12.60;99.90;;;;;;5035906;28;20457;-51
2023/03/20 03:41:02;;;;;;;11.73;8.50;;;11.80;99.90;;;;;;5036178;28;20902;-52
2023/03/20 03:43:33;;;;;;;9.90;8.90;;;12.40;99.90;;;;;;5036358;28;20502;-52
2023/03/20 03:46:05;;;;;;;9.40;8.33;;;12.60;99.90;;;;;;5053936;28;20441;-51
2023/03/20 03:48:35;;;;;;;10.10;9.10;;;12.30;99.90;;;;;;5053829;28;20437;-52
2023/03/20 03:51:05;;;;;;;10.73;9.63;;;12.40;99.90;;;;;;5035719;28;20958;-51
2023/03/20 03:53:38;;;;;;;8.43;7.47;;;12.30;99.90;;;;;;5036180;28;20463;-53
2023/03/20 03:56:12;;;;;;;11.87;9.57;;;12.30;99.90;;;;;;5036028;28;20512;-51
2023/03/20 03:58:42;;;;;;;10.47;9.37;;;12.30;99.90;;;;;;5035625;28;20445;-52
2023/03/20 04:01:11;;;;;;;10.93;8.63;;;12.10;99.90;;;;;;5053786;28;20475;-52
2023/03/20 04:03:43;;;;;;;10.87;9.40;;;12.50;99.90;;;;;;5035912;28;20456;-52
2023/03/20 04:06:12;;;;;;;11.07;9.57;;;12.20;99.90;;;;;;5035726;28;20457;-51
2023/03/20 04:08:40;;;;;;;12.07;10.23;;;12.10;99.90;;;;;;5053243;28;20428;-53
2023/03/20 04:11:14;;;;;;;10.83;9.23;;;12.20;99.90;;;;;;5035537;28;20451;-53
2023/03/20 04:13:40;;;;;;;11.67;10.57;;;12.20;99.90;;;;;;5035641;28;20465;-52
2023/03/20 04:16:12;;;;;;;12.17;10.97;;;12.30;99.90;;;;;;5035532;28;20835;-52
2023/03/20 04:18:38;;;;;;;11.20;10.00;;;12.30;99.90;;;;;;5035408;28;20450;-51
2023/03/20 04:21:06;;;;;;;11.07;10.07;;;12.10;99.90;;;;;;5053335;28;20441;-53
2023/03/20 04:23:32;;;;;;;11.60;10.40;;;12.20;99.90;;;;;;5053210;28;20432;-52
2023/03/20 04:26:00;;;;;;;11.23;10.10;;;11.90;99.90;;;;;;5035265;28;20506;-52
2023/03/20 04:28:30;;;;;;;11.87;10.73;;;11.80;99.90;;;;;;5035106;28;20448;-51
2023/03/20 04:31:11;;;;;;;12.17;11.03;;;11.90;99.90;;;;;;5053102;28;20433;-53
2023/03/20 04:33:49;;;;;;;13.50;11.40;;;12.40;99.90;;;;;;5053023;28;20839;-53
2023/03/20 04:36:48;;;;;;;12.07;10.87;;;12.00;99.90;;;;;;5008664;28;20497;-53
2023/03/20 04:39:17;;;;;;;12.13;10.83;;;11.80;99.90;;;;;;5034939;28;20453;-53
2023/03/20 04:41:43;;;;;;;18.33;11.77;;;12.20;99.90;;;;;;5052854;28;20469;-52
2023/03/20 04:44:11;;;;;;;12.10;10.90;;;11.90;99.90;;;;;;5035068;28;20484;-51
2023/03/20 04:46:39;;;;;;;12.40;11.20;;;11.80;99.90;;;;;;5034859;28;20457;-52
2023/03/20 04:49:14;;;;;;;13.27;11.10;;;11.40;99.90;;;;;;5034645;28;20848;-53
2023/03/20 04:51:41;;;;;;;12.30;10.63;;;12.60;99.90;;;;;;5034732;28;20838;-52
2023/03/20 04:54:08;;;;;;;12.27;10.80;;;11.80;99.90;;;;;;5034491;28;20458;-52
2023/03/20 04:56:34;;;;;;;12.43;11.10;;;11.50;99.90;;;;;;5034694;28;20498;-51
2023/03/20 04:59:14;;;;;;;15.83;11.00;;;12.10;99.90;;;;;;5034228;28;20464;-52
2023/03/20 05:01:41;;;;;;;13.13;11.43;;;12.00;99.90;;;;;;5034474;28;20547;-52
2023/03/20 05:04:08;;;;;;;12.23;10.87;;;11.70;99.90;;;;;;5034635;28;20469;-52
2023/03/20 05:06:35;;;;;;;12.60;11.30;;;12.00;99.90;;;;;;5034497;28;20449;-52
2023/03/20 05:09:02;;;;;;;12.17;10.87;;;11.90;99.90;;;;;;5034285;28;20453;-53
2023/03/20 05:11:31;;;;;;;11.70;10.60;;;11.90;99.90;;;;;;5034343;28;20460;-52
2023/03/20 05:14:19;;;;;;;13.87;10.73;;;12.10;99.90;;;;;;5051588;28;20489;-52
2023/03/20 05:17:04;;;;;;;13.07;11.87;;;12.00;99.90;;;;;;5034383;28;20453;-51
2023/03/20 05:19:50;;;;;;;15.50;12.13;;;12.00;99.90;;;;;;5052139;28;20429;-52
2023/03/20 05:22:26;;;;;;;12.43;11.20;;;12.00;99.90;;;;;;5052093;28;20506;-52
2023/03/20 05:25:13;;;;;;;12.73;11.43;;;11.80;99.90;;;;;;5051375;28;20479;-52
2023/03/20 05:27:55;;;;;;;14.47;12.90;;;11.90;99.90;;;;;;5034222;28;20456;-51
2023/03/20 05:30:23;;;;;;;19.03;13.00;;;11.80;99.90;;;;;;5051734;28;20443;-52
2023/03/20 05:33:10;;;;;;;16.50;11.77;;;11.90;99.90;;;;;;5034187;28;20482;-52
2023/03/20 05:35:50;;;;;;;15.73;13.00;;;12.30;99.90;;;;;;5051862;28;20839;-51
2023/03/20 05:38:31;;;;;;;17.37;14.20;;;12.10;99.90;;;;;;5033586;28;20552;-52
2023/03/20 05:41:25;;;;;;;19.67;13.30;;;12.30;99.90;;;;;;5033864;28;20822;-51
2023/03/20 05:44:05;;;;;;;21.27;14.13;;;11.90;99.90;;;;;;5033783;28;20448;-52
2023/03/20 05:47:03;;;;;;;16.90;14.90;;;12.20;99.90;;;;;;5033998;28;20951;-52
2023/03/20 05:49:49;;;;;;;15.13;13.57;;;11.80;99.90;;;;;;5033278;28;20480;-52
2023/03/20 05:52:42;;;;;;;18.70;13.37;;;11.90;99.90;;;;;;5047508;28;20501;-52
2023/03/20 05:55:22;;;;;;;17.63;14.67;;;12.00;99.90;;;;;;5033447;28;21029;-51
2023/03/20 05:58:11;;;;;;;16.50;14.67;;;12.20;99.90;;;;;;5033059;28;20462;-51
2023/03/20 06:01:03;;;;;;;16.90;13.60;;;11.70;99.90;;;;;;5051412;28;20545;-51
2023/03/20 06:04:03;;;;;;;15.37;13.20;;;12.10;99.90;;;;;;5035685;28;20456;-52
2023/03/20 06:06:55;;;;;;;16.50;13.20;;;12.10;99.90;;;;;;5033735;28;20983;-51
2023/03/20 06:09:22;;;;;;;15.33;13.23;;;12.00;99.90;;;;;;5033217;28;20504;-52
2023/03/20 06:11:49;;;;;;;19.80;15.30;;;11.50;99.90;;;;;;5032906;28;20474;-52
2023/03/20 06:14:17;;;;;;;17.30;14.93;;;12.00;99.90;;;;;;5035942;28;20448;-51
2023/03/20 06:16:50;;;;;;;21.17;16.83;;;12.00;99.90;;;;;;5037508;28;20840;-52
2023/03/20 06:19:18;;;;;;;18.30;16.33;;;12.30;99.90;;;;;;5037094;28;20479;-52
2023/03/20 06:21:45;;;;;;;18.30;16.40;;;12.20;99.90;;;;;;5037098;28;20472;-52
2023/03/20 06:24:15;;;;;;;19.77;16.60;;;12.00;99.90;;;;;;5037393;28;20438;-52
2023/03/20 06:26:42;;;;;;;17.50;15.67;;;12.00;99.90;;;;;;5037255;28;20861;-51
2023/03/20 06:29:11;;;;;;;17.30;15.50;;;12.10;99.90;;;;;;5036449;28;20457;-52
2023/03/20 06:31:38;;;;;;;17.67;15.83;;;12.20;99.90;;;;;;5036938;28;20484;-51
2023/03/20 06:34:06;;;;;;;19.47;15.77;;;12.40;99.90;;;;;;5054543;28;20431;-51
2023/03/20 06:36:39;;;;;;;17.37;14.87;;;12.10;99.90;;;;;;5036100;28;20485;-52
2023/03/20 06:39:13;;;;;;;19.43;17.10;;;12.20;99.90;;;;;;5036743;28;20456;-51
2023/03/20 06:41:40;;;;;;;17.87;16.10;;;12.10;99.90;;;;;;5036180;28;21015;-52
2023/03/20 06:44:09;;;;;;;24.17;17.40;;;12.30;99.90;;;;;;5035998;28;20433;-53
2023/03/20 06:46:54;;;;;;;19.50;16.77;;;11.40;99.90;;;;;;5054474;28;20782;-51
2023/03/20 06:49:21;;;;;;;21.57;19.27;;;11.30;99.90;;;;;;5036327;28;20500;-51
2023/03/20 06:51:49;;;;;;;21.67;19.37;;;11.80;99.90;;;;;;5036577;28;20542;-50
2023/03/20 06:54:23;;;;;;;24.30;20.20;;;11.70;99.90;;;;;;5036864;28;20461;-51
2023/03/20 06:56:51;;;;;;;23.17;20.33;;;11.80;99.90;;;;;;5036652;28;20503;-50
2023/03/20 06:59:18;;;;;;;33.47;21.77;;;11.80;99.90;;;;;;5053606;28;20455;-52
2023/03/20 07:01:45;;;;;;;26.47;22.50;;;11.60;99.90;;;;;;5036216;28;20524;-51
2023/03/20 07:04:13;;;;;;;28.63;21.70;;;11.40;99.90;;;;;;5038130;28;20564;-52
2023/03/20 07:06:49;;;;;;;27.77;22.63;;;11.70;99.90;;;;;;5039086;28;20877;-51
2023/03/20 07:09:17;;;;;;;30.23;22.80;;;11.60;99.90;;;;;;5038698;28;20422;-50
2023/03/20 07:11:44;;;;;;;31.50;25.20;;;11.40;99.90;;;;;;5039465;28;20474;-52
2023/03/20 07:14:11;;;;;;;29.23;22.13;;;11.60;99.90;;;;;;5040294;28;20452;-51
2023/03/20 07:16:49;;;;;;;26.40;22.83;;;11.50;99.90;;;;;;5040298;28;20487;-51
2023/03/20 07:19:16;;;;;;;32.13;25.90;;;11.30;99.90;;;;;;5037480;28;20450;-52
2023/03/20 07:21:46;;;;;;;29.83;24.87;;;12.20;99.90;;;;;;5036954;28;20534;-51
2023/03/20 07:24:15;;;;;;;36.23;27.40;;;11.80;99.90;;;;;;5037072;28;20452;-51
2023/03/20 07:26:42;;;;;;;34.30;27.80;;;11.50;99.90;;;;;;5036494;28;20480;-52
2023/03/20 07:29:09;;;;;;;34.33;25.77;;;11.90;99.90;;;;;;5036486;28;20972;-51
2023/03/20 07:31:37;;;;;;;40.63;27.07;;;11.10;99.90;;;;;;5035918;28;20918;-52
2023/03/20 07:34:10;;;;;;;36.67;26.37;;;11.90;99.90;;;;;;5035656;28;20554;-51
2023/03/20 07:36:37;;;;;;;35.57;25.60;;;11.60;99.90;;;;;;5035879;28;20481;-50
2023/03/20 07:39:04;;;;;;;31.10;24.20;;;11.80;99.90;;;;;;5034856;28;21082;-51
2023/03/20 07:41:33;;;;;;;34.93;24.57;;;11.50;99.90;;;;;;5035529;28;20493;-51
2023/03/20 07:44:06;;;;;;;33.17;22.03;;;11.60;99.90;;;;;;5035447;28;20461;-52
2023/03/20 07:46:47;;;;;;;33.10;24.10;;;11.30;99.90;;;;;;5035989;28;20472;-53
2023/03/20 07:49:17;;;;;;;34.40;25.43;;;11.80;99.90;;;;;;5035196;28;20471;-52
2023/03/20 07:51:45;;;;;;;32.77;23.60;;;11.30;99.90;;;;;;5035486;28;20549;-53
2023/03/20 07:54:11;;;;;;;34.87;23.67;;;10.70;99.90;;;;;;5035058;28;20460;-51
2023/03/20 07:56:39;;;;;;;32.93;22.30;;;11.30;99.90;;;;;;5053253;28;20608;-51
2023/03/20 07:59:06;;;;;;;37.70;24.03;;;11.30;99.90;;;;;;5034874;28;20479;-51
2023/03/20 08:01:33;;;;;;;29.80;20.73;;;11.20;99.90;;;;;;5053159;28;20472;-52
2023/03/20 08:04:00;;;;;;;31.30;22.13;;;11.50;99.90;;;;;;5053200;28;20803;-51
2023/03/20 08:06:27;;;;;;;34.33;22.70;;;11.00;99.90;;;;;;5052536;28;20430;-51
2023/03/20 08:08:53;;;;;;;30.03;21.40;;;11.40;99.90;;;;;;5052472;28;20429;-52
2023/03/20 08:11:20;;;;;;;32.03;21.23;;;11.70;99.90;;;;;;5053246;28;20471;-51
2023/03/20 08:13:48;;;;;;;33.40;23.10;;;11.70;99.90;;;;;;5053148;28;20428;-50
2023/03/20 08:16:14;;;;;;;29.90;21.17;;;11.60;99.90;;;;;;5052709;28;20474;-51
2023/03/20 08:18:42;;;;;;;32.10;22.50;;;11.60;99.90;;;;;;5052660;28;20925;-51
2023/03/20 08:21:09;;;;;;;32.07;23.73;;;12.30;99.90;;;;;;5052841;28;20459;-51
2023/03/20 08:23:35;;;;;;;31.23;22.77;;;12.00;99.90;;;;;;5053039;28;20447;-51
2023/03/20 08:26:02;;;;;;;31.07;21.23;;;12.30;99.90;;;;;;5052914;28;20437;-52
2023/03/20 08:28:29;;;;;;;33.70;22.93;;;11.90;99.90;;;;;;5052185;28;20499;-50
2023/03/20 08:30:57;;;;;;;28.57;20.80;;;11.90;99.90;;;;;;5052703;28;20833;-52
2023/03/20 08:33:23;;;;;;;35.40;20.77;;;12.20;99.90;;;;;;5052780;28;20466;-51
2023/03/20 08:35:57;;;;;;;32.40;22.27;;;12.00;99.90;;;;;;5052959;28;20504;-56
2023/03/20 08:38:24;;;;;;;31.00;21.43;;;12.00;99.90;;;;;;5051572;28;20444;-51
2023/03/20 08:40:51;;;;;;;31.00;21.30;;;11.70;99.90;;;;;;5052514;28;20524;-51
2023/03/20 08:43:18;;;;;;;36.33;22.40;;;11.70;99.90;;;;;;5052820;28;21004;-52
2023/03/20 08:45:45;;;;;;;33.93;22.27;;;11.70;99.90;;;;;;5052495;28;20434;-51
2023/03/20 08:48:13;;;;;;;31.83;20.37;;;12.30;99.90;;;;;;5052098;28;20431;-51
2023/03/20 08:50:40;;;;;;;31.60;21.60;;;12.20;99.90;;;;;;5052585;28;20480;-51
2023/03/20 08:53:06;;;;;;;28.00;19.30;;;12.70;99.90;;;;;;5052442;28;20457;-52
2023/03/20 08:55:34;;;;;;;30.20;20.40;;;12.60;99.90;;;;;;5052323;28;20438;-52
2023/03/20 08:58:00;;;;;;;29.63;18.93;;;12.50;99.90;;;;;;5052585;28;20436;-53
2023/03/20 09:00:27;;;;;;;28.07;20.63;;;13.00;99.90;;;;;;5051719;28;20436;-51
2023/03/20 09:02:54;;;;;;;27.40;19.93;;;13.00;99.90;;;;;;5052133;28;20859;-50
2023/03/20 09:05:22;;;;;;;29.43;20.20;;;13.20;99.90;;;;;;5052256;28;20446;-52
2023/03/20 09:07:50;;;;;;;26.63;18.27;;;13.20;99.90;;;;;;5034407;28;20543;-52
2023/03/20 09:10:19;;;;;;;30.40;20.17;;;13.40;99.90;;;;;;5050976;28;20436;-50
2023/03/20 09:12:46;;;;;;;24.50;18.80;;;13.60;99.90;;;;;;5051523;28;20443;-50
2023/03/20 09:15:12;;;;;;;25.20;18.63;;;14.20;99.90;;;;;;5052144;28;20210;-50
2023/03/20 09:17:39;;;;;;;30.03;19.83;;;13.40;99.90;;;;;;5051782;28;20490;-52
2023/03/20 09:20:07;;;;;;;26.20;19.53;;;13.90;99.90;;;;;;5051575;28;20426;-50
2023/03/20 09:22:35;;;;;;;30.27;19.10;;;14.10;99.90;;;;;;5051786;28;20458;-53
2023/03/20 09:25:01;;;;;;;23.83;17.17;;;14.40;99.90;;;;;;5051602;28;20439;-51
2023/03/20 09:27:28;;;;;;;31.33;18.33;;;14.70;99.90;;;;;;5051790;28;20917;-51
2023/03/20 09:29:55;;;;;;;23.83;19.27;;;14.10;99.90;;;;;;5051862;28;20924;-52
2023/03/20 09:32:21;;;;;;;26.60;18.87;;;15.10;99.90;;;;;;5051745;28;20456;-51
2023/03/20 09:34:48;;;;;;;23.10;17.00;;;14.60;99.90;;;;;;5051735;28;20435;-51
2023/03/20 09:37:14;;;;;;;22.90;16.40;;;14.50;99.90;;;;;;5033472;28;20487;-50
2023/03/20 09:39:43;;;;;;;23.67;16.90;;;14.30;99.90;;;;;;5050962;28;20520;-52
2023/03/20 09:42:25;;;;;;;22.87;15.90;;;14.80;99.90;;;;;;5050601;28;20821;-51
2023/03/20 09:45:01;;;;;;;21.80;14.30;;;14.50;99.90;;;;;;5051391;28;20446;-52
2023/03/20 09:47:36;;;;;;;23.00;15.70;;;14.40;99.90;;;;;;5051463;28;20783;-50
2023/03/20 09:50:13;;;;;;;21.90;16.30;;;14.60;99.90;;;;;;5050837;28;20478;-52
2023/03/20 09:52:45;;;;;;;23.80;13.80;;;14.60;99.90;;;;;;5050819;28;20461;-51
2023/03/20 09:55:17;;;;;;;18.03;14.00;;;14.90;99.90;;;;;;5047667;28;20533;-52
2023/03/20 09:57:47;;;;;;;19.90;15.70;;;14.60;99.90;;;;;;5046942;28;20491;-51
2023/03/20 10:00:18;;;;;;;20.93;14.80;;;14.30;99.90;;;;;;5050553;28;20438;-51
2023/03/20 10:02:49;;;;;;;21.07;15.20;;;14.40;99.90;;;;;;5050610;28;20473;-51
2023/03/20 10:05:22;;;;;;;17.10;14.10;;;14.20;99.90;;;;;;5047986;28;20451;-51
2023/03/20 10:07:50;;;;;;;21.15;15.20;;;14.00;99.90;;;;;;5052462;28;20422;-51
2023/03/20 10:10:19;;;;;;;23.13;14.37;;;14.50;99.90;;;;;;5048769;28;20208;-51
2023/03/20 10:12:56;;;;;;;18.17;12.27;;;14.30;99.90;;;;;;5050740;28;20523;-52
2023/03/20 10:15:35;;;;;;;18.43;13.63;;;14.20;99.90;;;;;;5051037;28;20435;-51
2023/03/20 10:18:10;;;;;;;18.17;12.57;;;14.30;99.90;;;;;;5050949;28;20453;-51
2023/03/20 10:20:42;;;;;;;15.70;12.23;;;14.40;99.90;;;;;;5050526;28;20935;-50
2023/03/20 10:23:20;;;;;;;18.00;12.70;;;14.20;99.90;;;;;;5050684;28;20466;-52
2023/03/20 10:25:52;;;;;;;16.80;11.20;;;14.10;99.90;;;;;;5032671;28;20504;-51
2023/03/20 10:28:24;;;;;;;15.57;10.97;;;14.50;99.90;;;;;;5032548;28;20443;-51
2023/03/20 10:31:01;;;;;;;18.80;10.73;;;14.50;99.90;;;;;;5034812;28;20795;-51
2023/03/20 10:33:42;;;;;;;16.60;11.60;;;14.40;99.90;;;;;;5031106;28;20431;-51
2023/03/20 10:36:23;;;;;;;15.77;10.20;;;14.40;99.90;;;;;;5013313;28;20980;-52
2023/03/20 10:38:58;;;;;;;16.77;11.67;;;14.30;99.90;;;;;;5041850;28;20928;-51
2023/03/20 10:41:29;;;;;;;14.30;10.67;;;14.40;99.90;;;;;;5048940;28;20462;-52
2023/03/20 10:43:57;;;;;;;19.63;11.40;;;14.40;99.90;;;;;;5043097;28;20425;-52
2023/03/20 10:46:27;;;;;;;13.90;11.30;;;14.30;99.90;;;;;;5047937;28;20948;-52
2023/03/20 10:49:00;;;;;;;15.80;11.17;;;14.40;99.90;;;;;;5020840;28;20457;-51
2023/03/20 10:51:38;;;;;;;16.00;11.20;;;14.70;99.90;;;;;;5050241;28;21041;-51
2023/03/20 10:54:20;;;;;;;16.10;11.33;;;14.40;99.90;;;;;;5050721;28;20833;-51
2023/03/20 10:56:50;;;;;;;17.20;10.50;;;14.50;99.90;;;;;;5045116;28;20471;-50
2023/03/20 10:59:22;;;;;;;18.10;11.27;;;14.20;99.90;;;;;;5042973;28;20443;-52
2023/03/20 11:01:50;;;;;;;16.63;11.47;;;14.60;99.90;;;;;;5053605;28;20489;-51
2023/03/20 11:04:16;;;;;;;15.50;9.90;;;14.60;99.90;;;;;;5046713;28;20459;-51
2023/03/20 11:06:50;;;;;;;15.60;10.77;;;14.70;99.90;;;;;;5054052;28;20943;-51
2023/03/20 11:09:20;;;;;;;18.15;12.30;;;15.10;99.90;;;;;;5052811;28;20427;-51
2023/03/20 11:11:51;;;;;;;14.90;10.60;;;15.60;99.90;;;;;;5053650;28;20678;-51
2023/03/20 11:14:19;;;;;;;12.77;8.03;;;15.40;99.90;;;;;;5050883;28;20454;-51
2023/03/20 11:16:48;;;;;;;16.13;8.90;;;14.90;99.90;;;;;;5035266;28;20564;-51
2023/03/20 11:19:16;;;;;;;23.87;17.90;;;15.00;99.90;;;;;;5053676;28;20461;-51
2023/03/20 11:21:48;;;;;;;15.30;9.80;;;15.00;99.90;;;;;;5054227;28;20473;-51
2023/03/20 11:24:27;;;;;;;17.77;11.93;;;15.30;99.90;;;;;;5054698;28;20789;-51
2023/03/20 11:27:04;;;;;;;11.77;8.75;;;15.00;99.90;;;;;;5053876;28;20434;-51
2023/03/20 11:29:34;;;;;;;13.63;9.30;;;15.20;99.90;;;;;;5051953;28;20212;-52
2023/03/20 11:32:06;;;;;;;10.60;8.83;;;15.10;99.90;;;;;;5053271;28;20555;-50
2023/03/20 11:34:37;;;;;;;17.20;9.90;;;14.90;99.90;;;;;;5053993;28;20439;-51
2023/03/20 11:37:19;;;;;;;16.00;9.47;;;14.30;99.80;;;;;;5053502;28;20469;-51
2023/03/20 11:39:57;;;;;;;15.23;9.70;;;14.60;99.90;;;;;;5050270;28;20918;-50
2023/03/20 11:42:27;;;;;;;17.53;9.93;;;14.80;99.90;;;;;;5035498;28;20474;-50
2023/03/20 11:44:58;;;;;;;11.40;9.07;;;15.10;99.90;;;;;;5053079;28;20404;-51
2023/03/20 11:47:27;;;;;;;18.97;9.87;;;14.60;99.90;;;;;;5052685;28;20410;-51
2023/03/20 11:49:56;;;;;;;13.60;8.70;;;14.40;99.90;;;;;;5052953;28;20431;-51
2023/03/20 11:52:27;;;;;;;16.07;9.90;;;14.30;99.90;;;;;;5053447;28;20466;-49
2023/03/20 11:54:56;;;;;;;11.03;8.20;;;15.20;99.90;;;;;;5049862;28;20476;-51
2023/03/20 11:57:32;;;;;;;11.00;8.57;;;15.10;99.90;;;;;;5051661;28;20883;-49
2023/03/20 12:00:02;;;;;;;14.13;9.33;;;14.70;99.90;;;;;;5052945;28;20780;-49
2023/03/20 12:02:31;;;;;;;13.07;9.20;;;14.50;99.90;;;;;;5053262;28;20971;-50
2023/03/20 12:05:00;;;;;;;13.40;9.20;;;15.40;99.90;;;;;;5052938;28;20408;-50
2023/03/20 12:07:30;;;;;;;13.37;8.43;;;15.00;99.80;;;;;;5052796;28;20437;-52
2023/03/20 12:09:59;;;;;;;17.77;10.23;;;14.80;99.60;;;;;;5053070;28;20434;-51
2023/03/20 12:12:39;;;;;;;12.87;8.87;;;14.70;99.70;;;;;;5047832;28;20486;-50
2023/03/20 12:15:15;;;;;;;11.83;8.97;;;15.10;99.80;;;;;;5053825;28;20764;-50
2023/03/20 12:17:51;;;;;;;10.60;9.00;;;14.90;99.80;;;;;;5052543;28;20474;-50
2023/03/20 12:20:30;;;;;;;14.17;9.60;;;14.90;99.90;;;;;;5052694;28;20426;-50
2023/03/20 12:23:03;;;;;;;13.63;9.30;;;15.00;99.90;;;;;;5052436;28;20450;-52
2023/03/20 12:25:36;;;;;;;18.73;9.57;;;14.90;99.90;;;;;;5051193;28;20520;-51
2023/03/20 12:28:11;;;;;;;13.35;10.35;;;14.70;99.80;;;;;;5037903;28;20512;-52
2023/03/20 12:30:53;;;;;;;12.43;8.40;;;14.90;99.10;;;;;;5046819;28;20484;-51
2023/03/20 12:33:35;;;;;;;26.27;11.80;;;14.90;98.80;;;;;;5051142;28;20890;-51
2023/03/20 12:36:03;;;;;;;11.43;9.93;;;14.90;99.30;;;;;;5050174;28;20423;-50
2023/03/20 12:38:33;;;;;;;12.17;10.20;;;15.00;99.30;;;;;;5049881;28;20485;-50
2023/03/20 12:41:10;;;;;;;13.80;10.30;;;15.00;99.60;;;;;;5050141;28;20465;-51
2023/03/20 12:44:00;;;;;;;14.33;10.43;;;14.80;99.10;;;;;;5050942;28;20950;-50
2023/03/20 12:46:33;;;;;;;13.70;10.37;;;14.60;99.00;;;;;;5052352;28;20437;-49
2023/03/20 12:49:09;;;;;;;13.70;10.67;;;14.50;99.10;;;;;;5052016;28;20445;-50
2023/03/20 12:51:51;;;;;;;16.37;11.10;;;15.00;99.30;;;;;;5052499;28;21013;-50
2023/03/20 12:54:32;;;;;;;14.87;10.33;;;14.80;99.30;;;;;;5051817;28;20435;-49
2023/03/20 12:57:09;;;;;;;16.20;10.07;;;14.70;99.20;;;;;;5052018;28;20506;-51
2023/03/20 12:59:49;;;;;;;14.77;10.27;;;14.70;99.20;;;;;;5034185;28;20438;-51